createdAt,value
2019-04-29T00:01:56.318Z,2.40
2019-04-29T00:07:01.988Z,3.02
2019-04-29T00:12:07.472Z,3.77
2019-04-29T00:17:19.421Z,3.07
2019-04-29T00:22:24.835Z,5.65
2019-04-29T00:27:30.092Z,3.83
2019-04-29T00:32:35.334Z,3.27
2019-04-29T00:38:07.932Z,4.47
2019-04-29T00:43:29.608Z,2.87
2019-04-29T00:48:34.863Z,4.00
2019-04-29T00:53:40.508Z,3.27
2019-04-29T00:58:45.935Z,4.62
2019-04-29T01:03:51.699Z,3.25
2019-04-29T01:08:57.417Z,3.30
2019-04-29T01:14:02.943Z,3.75
2019-04-29T01:19:08.650Z,3.58
2019-04-29T01:24:14.365Z,3.62
2019-04-29T01:29:22.849Z,3.93
2019-04-29T01:34:33.195Z,3.80
2019-04-29T01:39:44.595Z,3.72
2019-04-29T01:44:50.160Z,3.20
2019-04-29T01:49:55.376Z,3.62
2019-04-29T01:55:01.108Z,2.50
2019-04-29T02:00:12.135Z,4.40
2019-04-29T02:05:16.277Z,4.28
2019-04-29T02:10:31.933Z,2.73
2019-04-29T02:15:37.176Z,3.85
2019-04-29T02:20:42.438Z,2.90
2019-04-29T02:25:48.125Z,2.77
2019-04-29T02:30:54.067Z,3.00
2019-04-29T02:35:59.658Z,2.90
2019-04-29T02:41:23.985Z,2.30
2019-04-29T02:46:29.217Z,2.22
2019-04-29T02:51:47.233Z,3.83
2019-04-29T02:57:14.764Z,2.03
2019-04-29T03:02:46.286Z,2.40
2019-04-29T03:07:51.711Z,1.90
2019-04-29T03:12:56.961Z,1.72
2019-04-29T03:18:04.543Z,2.42
2019-04-29T03:23:15.366Z,2.05
2019-04-29T03:28:20.604Z,2.22
2019-04-29T03:33:25.820Z,2.10
2019-04-29T03:38:31.549Z,3.13
2019-04-29T03:43:36.808Z,1.77
2019-04-29T03:48:42.104Z,2.90
2019-04-29T03:53:48.060Z,2.87
2019-04-29T03:58:53.397Z,4.07
2019-04-29T04:04:03.671Z,1.93
2019-04-29T04:09:15.442Z,2.47
2019-04-29T04:14:20.814Z,2.55
2019-04-29T04:19:27.539Z,2.70
2019-04-29T04:24:32.852Z,2.60
2019-04-29T04:29:38.317Z,2.80
2019-04-29T04:34:43.567Z,3.03
2019-04-29T04:39:48.837Z,2.90
2019-04-29T04:44:54.302Z,4.00
2019-04-29T04:49:59.631Z,2.53
2019-04-29T04:55:05.675Z,4.13
2019-04-29T05:00:20.000Z,3.12
2019-04-29T05:05:24.156Z,2.20
2019-04-29T05:10:29.500Z,5.80
2019-04-29T05:15:35.215Z,12.50
2019-04-29T05:20:40.467Z,10.93
2019-04-29T05:25:45.880Z,15.68
2019-04-29T05:30:51.179Z,10.43
2019-04-29T05:36:03.787Z,6.08
2019-04-29T05:41:09.291Z,4.65
2019-04-29T05:46:33.521Z,3.10
2019-04-29T05:51:57.616Z,5.67
2019-04-29T05:57:00.550Z,6.33
2019-04-29T06:02:06.401Z,7.70
2019-04-29T06:07:11.760Z,8.00
2019-04-29T06:12:17.085Z,8.40
2019-04-29T06:17:22.647Z,6.45
2019-04-29T06:22:28.086Z,5.92
2019-04-29T06:27:33.507Z,5.75
2019-04-29T06:32:39.217Z,5.40
2019-04-29T06:37:44.587Z,4.25
2019-04-29T06:42:53.347Z,4.93
2019-04-29T06:47:57.224Z,7.92
2019-04-29T06:53:02.422Z,6.55
2019-04-29T06:58:07.674Z,7.95
2019-04-29T07:03:13.038Z,5.35
2019-04-29T07:08:19.309Z,5.87
2019-04-29T07:13:24.850Z,5.75
2019-04-29T07:18:30.646Z,7.60
2019-04-29T07:23:36.184Z,6.33
2019-04-29T07:28:41.711Z,4.72
2019-04-29T07:33:46.980Z,5.93
2019-04-29T07:38:56.740Z,7.42
2019-04-29T07:44:00.213Z,4.72
2019-04-29T07:49:05.883Z,7.87
2019-04-29T07:54:15.867Z,6.28
2019-04-29T07:59:18.321Z,5.20
2019-04-29T08:04:23.664Z,4.20
2019-04-29T08:09:29.264Z,4.35
2019-04-29T08:14:34.801Z,4.70
2019-04-29T08:19:40.123Z,5.53
2019-04-29T08:24:45.847Z,6.90
2019-04-29T08:29:52.330Z,5.75
2019-04-29T08:35:00.961Z,5.33
2019-04-29T08:40:16.069Z,4.08
2019-04-29T08:45:23.099Z,5.20
2019-04-29T08:50:28.330Z,3.67
2019-04-29T08:55:36.181Z,4.28
2019-04-29T09:00:41.192Z,4.95
2019-04-29T09:06:04.366Z,7.10
2019-04-29T09:10:53.824Z,5.37
2019-04-29T09:15:59.390Z,3.90
2019-04-29T09:21:04.633Z,5.55
2019-04-29T09:26:24.282Z,6.22
2019-04-29T09:31:30.006Z,3.70
2019-04-29T09:36:35.227Z,3.98
2019-04-29T09:42:08.026Z,3.27
2019-04-29T09:47:13.295Z,4.67
2019-04-29T09:52:18.684Z,2.92
2019-04-29T09:57:24.356Z,3.98
2019-04-29T10:02:41.816Z,3.55
2019-04-29T10:07:47.070Z,3.83
2019-04-29T10:12:54.111Z,4.47
2019-04-29T10:18:09.341Z,2.98
2019-04-29T10:23:15.079Z,5.12
2019-04-29T10:28:20.457Z,5.03
2019-04-29T10:33:26.241Z,5.97
2019-04-29T10:38:31.471Z,3.43
2019-04-29T10:44:07.629Z,3.07
2019-04-29T10:49:22.929Z,2.60
2019-04-29T10:54:30.271Z,4.67
2019-04-29T10:59:40.687Z,4.37
2019-04-29T11:04:46.587Z,3.92
2019-04-29T11:09:59.554Z,5.17
2019-04-29T11:15:09.968Z,5.97
2019-04-29T11:20:15.895Z,4.20
2019-04-29T11:25:51.188Z,5.53
2019-04-29T11:30:53.279Z,4.83
2019-04-29T11:36:05.911Z,4.50
2019-04-29T11:41:19.278Z,5.67
2019-04-29T11:46:20.991Z,5.17
2019-04-29T11:51:34.272Z,4.53
2019-04-29T11:56:39.719Z,5.20
2019-04-29T12:02:02.954Z,5.58
2019-04-29T12:07:08.308Z,6.03
2019-04-29T12:12:15.029Z,4.50
2019-04-29T12:17:33.159Z,4.10
2019-04-29T12:22:48.236Z,5.30
2019-04-29T12:27:45.863Z,4.87
2019-04-29T12:33:10.074Z,6.47
2019-04-29T12:38:49.081Z,5.00
2019-04-29T12:44:01.189Z,5.10
2019-04-29T12:49:08.629Z,6.03
2019-04-29T12:54:14.178Z,3.30
2019-04-29T12:59:19.807Z,5.37
2019-04-29T13:04:45.218Z,4.70
2019-04-29T13:09:51.959Z,7.42
2019-04-29T13:15:28.229Z,6.15
2019-04-29T13:20:34.469Z,9.30
2019-04-29T13:25:41.572Z,5.17
2019-04-29T13:30:50.999Z,7.62
2019-04-29T13:35:54.006Z,6.58
2019-04-29T13:41:12.770Z,7.83
2019-04-29T13:46:30.047Z,6.08
2019-04-29T13:51:37.190Z,6.42
2019-04-29T13:56:55.094Z,8.50
2019-04-29T14:02:01.470Z,7.12
2019-04-29T14:07:03.638Z,6.30
2019-04-29T14:12:46.640Z,7.73
2019-04-29T14:17:26.073Z,6.45
2019-04-29T14:22:25.413Z,6.70
2019-04-29T14:27:30.746Z,8.13
2019-04-29T14:32:42.021Z,7.83
2019-04-29T14:37:54.559Z,8.40
2019-04-29T14:43:28.700Z,8.98
2019-04-29T14:48:42.646Z,9.10
2019-04-29T14:53:55.663Z,10.50
2019-04-29T14:58:50.992Z,8.58
2019-04-29T15:03:58.749Z,7.20
2019-04-29T15:09:08.291Z,7.70
2019-04-29T15:14:40.109Z,8.33
2019-04-29T15:20:07.388Z,8.05
2019-04-29T15:25:12.827Z,7.05
2019-04-29T15:30:18.789Z,7.87
2019-04-29T15:35:25.424Z,7.42
2019-04-29T15:40:31.651Z,7.30
2019-04-29T15:45:37.000Z,8.85
2019-04-29T15:50:42.374Z,7.90
2019-04-29T15:55:47.698Z,7.80
2019-04-29T16:00:53.353Z,6.60
2019-04-29T16:06:20.686Z,8.95
2019-04-29T16:11:33.387Z,8.23
2019-04-29T16:16:37.373Z,8.53
2019-04-29T16:21:42.969Z,8.13
2019-04-29T16:26:53.552Z,7.78
2019-04-29T16:32:02.366Z,8.78
2019-04-29T16:37:02.793Z,8.88
2019-04-29T16:42:26.022Z,8.47
2019-04-29T16:47:31.430Z,10.18
2019-04-29T16:52:41.197Z,9.70
2019-04-29T16:57:43.874Z,11.40
2019-04-29T17:02:50.244Z,9.30
2019-04-29T17:07:55.670Z,9.17
2019-04-29T17:13:01.032Z,8.95
2019-04-29T17:18:07.334Z,9.15
2019-04-29T17:23:12.660Z,8.85
2019-04-29T17:28:25.433Z,9.40
2019-04-29T17:33:52.788Z,9.10
2019-04-29T17:38:59.020Z,9.63
2019-04-29T17:44:35.822Z,8.30
2019-04-29T17:50:06.187Z,7.95
2019-04-29T17:55:37.628Z,6.80
2019-04-29T18:00:59.422Z,6.87
2019-04-29T18:06:17.216Z,6.10
2019-04-29T18:11:22.966Z,5.93
2019-04-29T18:16:39.451Z,6.62
2019-04-29T18:22:01.067Z,5.30
2019-04-29T18:27:10.408Z,5.85
2019-04-29T18:32:19.078Z,5.78
2019-04-29T18:37:25.452Z,5.25
2019-04-29T18:42:31.058Z,5.70
2019-04-29T18:47:38.747Z,6.00
2019-04-29T18:52:45.778Z,6.22
2019-04-29T18:57:56.456Z,5.63
2019-04-29T19:03:01.194Z,5.80
2019-04-29T19:08:14.030Z,5.70
2019-04-29T19:13:16.693Z,6.92
2019-04-29T19:18:21.644Z,6.20
2019-04-29T19:23:29.612Z,7.22
2019-04-29T19:28:34.671Z,7.20
2019-04-29T19:33:41.611Z,8.18
2019-04-29T19:38:47.473Z,8.30
2019-04-29T19:43:54.940Z,10.07
2019-04-29T19:49:08.073Z,10.18
2019-04-29T19:54:07.637Z,10.00
2019-04-29T19:59:14.671Z,11.65
2019-04-29T20:04:28.202Z,12.23
2019-04-29T20:09:36.224Z,11.80
2019-04-29T20:14:41.315Z,12.82
2019-04-29T20:19:56.674Z,15.00
2019-04-29T20:24:59.319Z,14.80
2019-04-29T20:30:15.931Z,15.60
2019-04-29T20:35:15.756Z,16.00
2019-04-29T20:40:20.894Z,18.00
2019-04-29T20:45:28.898Z,18.90
2019-04-29T20:50:35.214Z,19.30
2019-04-29T20:55:40.888Z,20.72
2019-04-29T21:00:46.855Z,20.57
2019-04-29T21:05:54.998Z,20.65
2019-04-29T21:11:03.059Z,22.25
2019-04-29T21:16:29.652Z,22.75
2019-04-29T21:21:36.899Z,22.77
2019-04-29T21:26:44.659Z,22.95
2019-04-29T21:31:55.409Z,23.47
2019-04-29T21:37:19.638Z,21.73
2019-04-29T21:42:38.523Z,22.42
2019-04-29T21:47:47.804Z,21.95
2019-04-29T21:52:55.359Z,22.33
2019-04-29T21:58:00.132Z,21.73
2019-04-29T22:03:05.748Z,20.97
2019-04-29T22:08:11.339Z,21.82
2019-04-29T22:13:16.880Z,23.32
2019-04-29T22:18:22.311Z,22.57
2019-04-29T22:23:27.766Z,22.42
2019-04-29T22:28:35.127Z,23.00
2019-04-29T22:33:42.383Z,23.17
2019-04-29T22:38:51.983Z,23.80
2019-04-29T22:43:59.347Z,23.43
2019-04-29T22:49:05.871Z,23.73
2019-04-29T22:54:11.572Z,23.83
2019-04-29T22:59:19.099Z,25.08
2019-04-29T23:04:24.923Z,25.90
2019-04-29T23:09:30.304Z,25.00
2019-04-29T23:14:36.113Z,25.88
2019-04-29T23:19:46.602Z,25.85
2019-04-29T23:25:08.734Z,26.60
2019-04-29T23:30:18.030Z,26.48
2019-04-29T23:35:25.016Z,26.48
2019-04-29T23:40:30.166Z,28.13
2019-04-29T23:45:35.899Z,27.75
2019-04-29T23:50:41.126Z,28.92
2019-04-29T23:55:46.687Z,27.97
